sensor_id;sensor_type;location;lat;lon;timestamp;temperature;humidity
14099;DHT22;7126;48.458;7.930;2023-07-31T00:02:20;17.40;99.90
14099;DHT22;7126;48.458;7.930;2023-07-31T00:04:46;17.30;99.90
14099;DHT22;7126;48.458;7.930;2023-07-31T00:07:11;17.20;99.90
14099;DHT22;7126;48.458;7.930;2023-07-31T00:09:37;17.30;99.90
14099;DHT22;7126;48.458;7.930;2023-07-31T00:12:03;17.30;99.90
14099;DHT22;7126;48.458;7.930;2023-07-31T00:14:28;17.20;99.90
14099;DHT22;7126;48.458;7.930;2023-07-31T00:16:54;17.10;99.90
14099;DHT22;7126;48.458;7.930;2023-07-31T00:19:20;17.10;99.90
14099;DHT22;7126;48.458;7.930;2023-07-31T00:21:45;17.10;99.90
14099;DHT22;7126;48.458;7.930;2023-07-31T00:24:11;17.10;99.90
14099;DHT22;7126;48.458;7.930;2023-07-31T00:26:36;17.10;99.90
14099;DHT22;7126;48.458;7.930;2023-07-31T00:29:02;17.10;99.90
14099;DHT22;7126;48.458;7.930;2023-07-31T00:31:27;17.00;99.90
14099;DHT22;7126;48.458;7.930;2023-07-31T00:33:53;16.90;99.90
14099;DHT22;7126;48.458;7.930;2023-07-31T00:36:18;16.80;99.90
14099;DHT22;7126;48.458;7.930;2023-07-31T00:38:44;16.90;99.90
14099;DHT22;7126;48.458;7.930;2023-07-31T00:41:10;16.70;99.90
14099;DHT22;7126;48.458;7.930;2023-07-31T00:43:35;16.60;99.90
14099;DHT22;7126;48.458;7.930;2023-07-31T00:46:01;16.60;99.90
14099;DHT22;7126;48.458;7.930;2023-07-31T00:48:26;16.60;99.90
14099;DHT22;7126;48.458;7.930;2023-07-31T00:50:52;16.60;99.90
14099;DHT22;7126;48.458;7.930;2023-07-31T00:53:18;16.60;99.90
14099;DHT22;7126;48.458;7.930;2023-07-31T00:55:44;16.60;99.90
14099;DHT22;7126;48.458;7.930;2023-07-31T00:58:10;16.50;99.90
14099;DHT22;7126;48.458;7.930;2023-07-31T01:00:35;16.50;99.90
14099;DHT22;7126;48.458;7.930;2023-07-31T01:03:01;16.50;99.90
14099;DHT22;7126;48.458;7.930;2023-07-31T01:05:39;16.50;99.90
14099;DHT22;7126;48.458;7.930;2023-07-31T01:08:37;16.50;99.90
14099;DHT22;7126;48.458;7.930;2023-07-31T01:11:19;16.50;99.90
14099;DHT22;7126;48.458;7.930;2023-07-31T01:13:46;16.40;99.90
14099;DHT22;7126;48.458;7.930;2023-07-31T01:16:12;16.40;99.90
14099;DHT22;7126;48.458;7.930;2023-07-31T01:18:37;16.30;99.90
14099;DHT22;7126;48.458;7.930;2023-07-31T01:21:39;16.30;99.90
14099;DHT22;7126;48.458;7.930;2023-07-31T01:27:14;16.20;99.90
14099;DHT22;7126;48.458;7.930;2023-07-31T01:29:56;16.30;99.90
14099;DHT22;7126;48.458;7.930;2023-07-31T01:32:28;16.30;99.90
14099;DHT22;7126;48.458;7.930;2023-07-31T01:34:54;16.30;99.90
14099;DHT22;7126;48.458;7.930;2023-07-31T01:37:20;16.20;99.90
14099;DHT22;7126;48.458;7.930;2023-07-31T01:39:45;16.20;99.90
14099;DHT22;7126;48.458;7.930;2023-07-31T01:42:11;16.30;99.90
14099;DHT22;7126;48.458;7.930;2023-07-31T01:44:36;16.20;99.90
14099;DHT22;7126;48.458;7.930;2023-07-31T01:47:02;16.10;99.90
14099;DHT22;7126;48.458;7.930;2023-07-31T01:49:28;16.10;99.90
14099;DHT22;7126;48.458;7.930;2023-07-31T01:51:53;16.10;99.90
14099;DHT22;7126;48.458;7.930;2023-07-31T01:54:19;16.20;99.90
14099;DHT22;7126;48.458;7.930;2023-07-31T01:56:44;16.20;99.90
14099;DHT22;7126;48.458;7.930;2023-07-31T01:59:10;16.20;99.90
14099;DHT22;7126;48.458;7.930;2023-07-31T02:01:35;16.10;99.90
14099;DHT22;7126;48.458;7.930;2023-07-31T02:04:01;16.20;99.90
14099;DHT22;7126;48.458;7.930;2023-07-31T02:06:26;16.20;99.90
14099;DHT22;7126;48.458;7.930;2023-07-31T02:08:52;16.10;99.90
14099;DHT22;7126;48.458;7.930;2023-07-31T02:11:18;16.10;99.90
14099;DHT22;7126;48.458;7.930;2023-07-31T02:13:43;16.20;99.90
14099;DHT22;7126;48.458;7.930;2023-07-31T02:16:09;16.10;99.90
14099;DHT22;7126;48.458;7.930;2023-07-31T02:18:34;16.10;99.90
14099;DHT22;7126;48.458;7.930;2023-07-31T02:21:00;16.10;99.90
14099;DHT22;7126;48.458;7.930;2023-07-31T02:23:25;16.10;99.90
14099;DHT22;7126;48.458;7.930;2023-07-31T02:25:51;16.10;99.90
14099;DHT22;7126;48.458;7.930;2023-07-31T02:28:16;16.10;99.90
14099;DHT22;7126;48.458;7.930;2023-07-31T02:30:44;16.10;99.90
14099;DHT22;7126;48.458;7.930;2023-07-31T02:33:11;16.10;99.90
14099;DHT22;7126;48.458;7.930;2023-07-31T02:35:37;16.10;99.90
14099;DHT22;7126;48.458;7.930;2023-07-31T02:40:39;16.20;99.90
14099;DHT22;7126;48.458;7.930;2023-07-31T02:43:06;16.20;99.90
14099;DHT22;7126;48.458;7.930;2023-07-31T02:45:32;16.20;99.90
14099;DHT22;7126;48.458;7.930;2023-07-31T02:47:58;16.20;99.90
14099;DHT22;7126;48.458;7.930;2023-07-31T02:50:23;16.30;99.90
14099;DHT22;7126;48.458;7.930;2023-07-31T02:52:49;16.30;99.90
14099;DHT22;7126;48.458;7.930;2023-07-31T02:55:14;16.30;99.90
14099;DHT22;7126;48.458;7.930;2023-07-31T02:57:40;16.20;99.90
14099;DHT22;7126;48.458;7.930;2023-07-31T03:00:06;16.10;99.90
14099;DHT22;7126;48.458;7.930;2023-07-31T03:02:32;16.10;99.90
14099;DHT22;7126;48.458;7.930;2023-07-31T03:04:58;16.10;99.90
14099;DHT22;7126;48.458;7.930;2023-07-31T03:07:23;16.00;99.90
14099;DHT22;7126;48.458;7.930;2023-07-31T03:09:49;16.00;99.90
14099;DHT22;7126;48.458;7.930;2023-07-31T03:12:14;16.00;99.90
14099;DHT22;7126;48.458;7.930;2023-07-31T03:14:40;16.10;99.90
14099;DHT22;7126;48.458;7.930;2023-07-31T03:17:06;16.10;99.90
14099;DHT22;7126;48.458;7.930;2023-07-31T03:19:32;16.00;99.90
14099;DHT22;7126;48.458;7.930;2023-07-31T03:21:58;16.00;99.90
14099;DHT22;7126;48.458;7.930;2023-07-31T03:24:24;16.00;99.90
14099;DHT22;7126;48.458;7.930;2023-07-31T03:26:49;16.10;99.90
14099;DHT22;7126;48.458;7.930;2023-07-31T03:29:15;16.20;99.90
14099;DHT22;7126;48.458;7.930;2023-07-31T03:31:40;16.20;99.90
14099;DHT22;7126;48.458;7.930;2023-07-31T03:34:06;16.20;99.90
14099;DHT22;7126;48.458;7.930;2023-07-31T03:36:31;16.20;99.90
14099;DHT22;7126;48.458;7.930;2023-07-31T03:38:57;16.20;99.90
14099;DHT22;7126;48.458;7.930;2023-07-31T03:41:23;16.20;99.90
14099;DHT22;7126;48.458;7.930;2023-07-31T03:43:50;16.20;99.90
14099;DHT22;7126;48.458;7.930;2023-07-31T03:46:21;16.30;99.90
14099;DHT22;7126;48.458;7.930;2023-07-31T03:48:47;16.30;99.90
14099;DHT22;7126;48.458;7.930;2023-07-31T03:51:13;16.30;99.90
14099;DHT22;7126;48.458;7.930;2023-07-31T03:53:38;16.30;99.90
14099;DHT22;7126;48.458;7.930;2023-07-31T03:56:04;16.30;99.90
14099;DHT22;7126;48.458;7.930;2023-07-31T03:58:30;16.30;99.90
14099;DHT22;7126;48.458;7.930;2023-07-31T04:00:55;16.30;99.90
14099;DHT22;7126;48.458;7.930;2023-07-31T04:03:21;16.40;99.90
14099;DHT22;7126;48.458;7.930;2023-07-31T04:05:46;16.40;99.90
14099;DHT22;7126;48.458;7.930;2023-07-31T04:08:12;16.40;99.90
14099;DHT22;7126;48.458;7.930;2023-07-31T04:10:38;16.40;99.90
14099;DHT22;7126;48.458;7.930;2023-07-31T04:13:03;16.50;99.90
14099;DHT22;7126;48.458;7.930;2023-07-31T04:15:29;16.60;99.90
14099;DHT22;7126;48.458;7.930;2023-07-31T04:17:54;16.60;99.90
14099;DHT22;7126;48.458;7.930;2023-07-31T04:20:20;16.50;99.90
14099;DHT22;7126;48.458;7.930;2023-07-31T04:22:45;16.50;99.90
14099;DHT22;7126;48.458;7.930;2023-07-31T04:25:11;16.50;99.90
14099;DHT22;7126;48.458;7.930;2023-07-31T04:27:36;16.50;99.90
14099;DHT22;7126;48.458;7.930;2023-07-31T04:30:02;16.60;99.90
14099;DHT22;7126;48.458;7.930;2023-07-31T04:32:28;16.60;99.90
14099;DHT22;7126;48.458;7.930;2023-07-31T04:34:55;16.60;99.90
14099;DHT22;7126;48.458;7.930;2023-07-31T04:37:20;16.50;99.90
14099;DHT22;7126;48.458;7.930;2023-07-31T04:39:46;16.50;99.90
14099;DHT22;7126;48.458;7.930;2023-07-31T04:42:12;16.50;99.90
14099;DHT22;7126;48.458;7.930;2023-07-31T04:44:37;16.40;99.90
14099;DHT22;7126;48.458;7.930;2023-07-31T04:47:03;16.50;99.90
14099;DHT22;7126;48.458;7.930;2023-07-31T04:49:29;16.60;99.90
14099;DHT22;7126;48.458;7.930;2023-07-31T04:51:54;16.60;99.90
14099;DHT22;7126;48.458;7.930;2023-07-31T04:54:20;16.60;99.90
14099;DHT22;7126;48.458;7.930;2023-07-31T04:56:45;16.60;99.90
14099;DHT22;7126;48.458;7.930;2023-07-31T04:59:11;16.60;99.90
14099;DHT22;7126;48.458;7.930;2023-07-31T05:01:36;16.60;99.90
14099;DHT22;7126;48.458;7.930;2023-07-31T05:04:02;16.60;99.90
14099;DHT22;7126;48.458;7.930;2023-07-31T05:06:27;16.60;99.90
14099;DHT22;7126;48.458;7.930;2023-07-31T05:08:53;16.60;99.90
14099;DHT22;7126;48.458;7.930;2023-07-31T05:11:19;16.70;99.90
14099;DHT22;7126;48.458;7.930;2023-07-31T05:13:44;16.70;99.90
14099;DHT22;7126;48.458;7.930;2023-07-31T05:16:10;16.70;99.90
14099;DHT22;7126;48.458;7.930;2023-07-31T05:18:35;16.80;99.90
14099;DHT22;7126;48.458;7.930;2023-07-31T05:21:01;16.80;99.90
14099;DHT22;7126;48.458;7.930;2023-07-31T05:23:26;16.80;99.90
14099;DHT22;7126;48.458;7.930;2023-07-31T05:25:52;16.90;99.90
14099;DHT22;7126;48.458;7.930;2023-07-31T05:28:17;16.90;99.90
14099;DHT22;7126;48.458;7.930;2023-07-31T05:30:43;17.00;99.90
14099;DHT22;7126;48.458;7.930;2023-07-31T05:33:08;17.10;99.90
14099;DHT22;7126;48.458;7.930;2023-07-31T05:35:34;17.10;99.90
14099;DHT22;7126;48.458;7.930;2023-07-31T05:37:59;17.10;99.90
14099;DHT22;7126;48.458;7.930;2023-07-31T05:40:25;17.20;99.90
14099;DHT22;7126;48.458;7.930;2023-07-31T05:42:50;17.10;99.90
14099;DHT22;7126;48.458;7.930;2023-07-31T05:45:16;17.10;99.90
14099;DHT22;7126;48.458;7.930;2023-07-31T05:47:42;17.20;99.90
14099;DHT22;7126;48.458;7.930;2023-07-31T05:50:07;17.20;99.90
14099;DHT22;7126;48.458;7.930;2023-07-31T05:52:33;17.30;99.90
14099;DHT22;7126;48.458;7.930;2023-07-31T05:54:59;17.30;99.90
14099;DHT22;7126;48.458;7.930;2023-07-31T05:57:24;17.40;99.90
14099;DHT22;7126;48.458;7.930;2023-07-31T05:59:50;17.40;99.90
14099;DHT22;7126;48.458;7.930;2023-07-31T06:02:15;17.50;99.90
14099;DHT22;7126;48.458;7.930;2023-07-31T06:04:41;17.60;99.90
14099;DHT22;7126;48.458;7.930;2023-07-31T06:07:06;17.60;99.90
14099;DHT22;7126;48.458;7.930;2023-07-31T06:09:32;17.60;99.90
14099;DHT22;7126;48.458;7.930;2023-07-31T06:11:58;17.60;99.90
14099;DHT22;7126;48.458;7.930;2023-07-31T06:14:23;17.60;99.90
14099;DHT22;7126;48.458;7.930;2023-07-31T06:16:49;17.70;99.90
14099;DHT22;7126;48.458;7.930;2023-07-31T06:19:15;17.80;99.90
14099;DHT22;7126;48.458;7.930;2023-07-31T06:21:40;17.90;99.90
14099;DHT22;7126;48.458;7.930;2023-07-31T06:24:08;17.90;99.90
14099;DHT22;7126;48.458;7.930;2023-07-31T06:26:34;18.00;99.90
14099;DHT22;7126;48.458;7.930;2023-07-31T06:28:59;18.20;99.90
14099;DHT22;7126;48.458;7.930;2023-07-31T06:31:25;18.30;99.90
14099;DHT22;7126;48.458;7.930;2023-07-31T06:33:51;18.40;99.90
14099;DHT22;7126;48.458;7.930;2023-07-31T06:36:17;18.40;99.90
14099;DHT22;7126;48.458;7.930;2023-07-31T06:38:43;18.50;99.90
14099;DHT22;7126;48.458;7.930;2023-07-31T06:41:09;18.60;99.90
14099;DHT22;7126;48.458;7.930;2023-07-31T06:43:36;18.70;99.90
14099;DHT22;7126;48.458;7.930;2023-07-31T06:46:05;18.80;99.90
14099;DHT22;7126;48.458;7.930;2023-07-31T06:48:32;18.90;99.90
14099;DHT22;7126;48.458;7.930;2023-07-31T06:50:58;18.90;99.90
14099;DHT22;7126;48.458;7.930;2023-07-31T06:53:23;19.00;99.90
14099;DHT22;7126;48.458;7.930;2023-07-31T06:55:49;19.00;99.90
14099;DHT22;7126;48.458;7.930;2023-07-31T06:58:17;19.10;99.90
14099;DHT22;7126;48.458;7.930;2023-07-31T07:00:42;19.20;99.90
14099;DHT22;7126;48.458;7.930;2023-07-31T07:03:08;19.30;99.90
14099;DHT22;7126;48.458;7.930;2023-07-31T07:05:34;19.30;99.90
14099;DHT22;7126;48.458;7.930;2023-07-31T07:07:59;19.30;99.90
14099;DHT22;7126;48.458;7.930;2023-07-31T07:10:25;19.30;99.90
14099;DHT22;7126;48.458;7.930;2023-07-31T07:12:51;19.30;99.90
14099;DHT22;7126;48.458;7.930;2023-07-31T07:15:16;19.40;99.90
14099;DHT22;7126;48.458;7.930;2023-07-31T07:17:42;19.50;99.90
14099;DHT22;7126;48.458;7.930;2023-07-31T07:20:08;19.50;99.90
14099;DHT22;7126;48.458;7.930;2023-07-31T07:22:33;19.70;99.90
14099;DHT22;7126;48.458;7.930;2023-07-31T07:24:59;19.80;99.90
14099;DHT22;7126;48.458;7.930;2023-07-31T07:27:25;19.90;99.90
14099;DHT22;7126;48.458;7.930;2023-07-31T07:29:51;19.90;99.90
14099;DHT22;7126;48.458;7.930;2023-07-31T07:32:20;20.00;99.90
14099;DHT22;7126;48.458;7.930;2023-07-31T07:34:48;20.10;99.90
14099;DHT22;7126;48.458;7.930;2023-07-31T07:37:13;20.10;99.90
14099;DHT22;7126;48.458;7.930;2023-07-31T07:39:39;20.10;99.90
14099;DHT22;7126;48.458;7.930;2023-07-31T07:42:04;20.20;99.90
14099;DHT22;7126;48.458;7.930;2023-07-31T07:44:30;20.30;99.90
14099;DHT22;7126;48.458;7.930;2023-07-31T07:46:55;20.40;99.90
14099;DHT22;7126;48.458;7.930;2023-07-31T07:49:21;20.40;99.90
14099;DHT22;7126;48.458;7.930;2023-07-31T07:51:48;20.40;99.90
14099;DHT22;7126;48.458;7.930;2023-07-31T07:54:14;20.40;99.90
14099;DHT22;7126;48.458;7.930;2023-07-31T07:56:39;20.40;99.90
14099;DHT22;7126;48.458;7.930;2023-07-31T07:59:05;20.40;99.90
14099;DHT22;7126;48.458;7.930;2023-07-31T08:01:30;20.40;99.90
14099;DHT22;7126;48.458;7.930;2023-07-31T08:03:56;20.50;99.90
14099;DHT22;7126;48.458;7.930;2023-07-31T08:06:22;20.50;99.90
14099;DHT22;7126;48.458;7.930;2023-07-31T08:08:48;20.60;99.90
14099;DHT22;7126;48.458;7.930;2023-07-31T08:11:13;20.70;99.90
14099;DHT22;7126;48.458;7.930;2023-07-31T08:13:39;20.70;99.90
14099;DHT22;7126;48.458;7.930;2023-07-31T08:16:04;20.70;99.90
14099;DHT22;7126;48.458;7.930;2023-07-31T08:18:31;20.70;99.90
14099;DHT22;7126;48.458;7.930;2023-07-31T08:20:57;20.60;99.90
14099;DHT22;7126;48.458;7.930;2023-07-31T08:23:22;20.60;99.90
14099;DHT22;7126;48.458;7.930;2023-07-31T08:25:48;20.60;99.90
14099;DHT22;7126;48.458;7.930;2023-07-31T08:28:16;20.60;99.90
14099;DHT22;7126;48.458;7.930;2023-07-31T08:30:41;20.50;99.90
14099;DHT22;7126;48.458;7.930;2023-07-31T08:33:07;20.60;99.90
14099;DHT22;7126;48.458;7.930;2023-07-31T08:35:33;20.60;99.90
14099;DHT22;7126;48.458;7.930;2023-07-31T08:37:59;20.60;99.90
14099;DHT22;7126;48.458;7.930;2023-07-31T08:40:24;20.60;99.90
14099;DHT22;7126;48.458;7.930;2023-07-31T08:42:53;20.60;99.90
14099;DHT22;7126;48.458;7.930;2023-07-31T08:45:20;20.60;99.90
14099;DHT22;7126;48.458;7.930;2023-07-31T08:47:47;20.60;99.90
14099;DHT22;7126;48.458;7.930;2023-07-31T08:50:15;20.70;99.90
14099;DHT22;7126;48.458;7.930;2023-07-31T08:52:40;20.70;99.90
14099;DHT22;7126;48.458;7.930;2023-07-31T08:55:07;20.80;99.90
14099;DHT22;7126;48.458;7.930;2023-07-31T08:57:35;20.90;99.90
14099;DHT22;7126;48.458;7.930;2023-07-31T09:00:02;21.00;99.90
14099;DHT22;7126;48.458;7.930;2023-07-31T09:02:34;21.00;99.90
14099;DHT22;7126;48.458;7.930;2023-07-31T09:05:01;21.10;99.90
14099;DHT22;7126;48.458;7.930;2023-07-31T09:07:29;21.30;99.90
14099;DHT22;7126;48.458;7.930;2023-07-31T09:09:55;21.50;99.90
14099;DHT22;7126;48.458;7.930;2023-07-31T09:12:21;21.70;99.90
14099;DHT22;7126;48.458;7.930;2023-07-31T09:14:47;22.00;99.90
14099;DHT22;7126;48.458;7.930;2023-07-31T09:17:13;22.20;99.90
14099;DHT22;7126;48.458;7.930;2023-07-31T09:19:38;22.40;99.90
14099;DHT22;7126;48.458;7.930;2023-07-31T09:22:06;22.40;99.90
14099;DHT22;7126;48.458;7.930;2023-07-31T09:24:33;22.60;99.90
14099;DHT22;7126;48.458;7.930;2023-07-31T09:27:00;22.70;99.90
14099;DHT22;7126;48.458;7.930;2023-07-31T09:29:27;22.80;99.90
14099;DHT22;7126;48.458;7.930;2023-07-31T09:31:54;22.90;99.90
14099;DHT22;7126;48.458;7.930;2023-07-31T09:34:21;22.90;99.90
14099;DHT22;7126;48.458;7.930;2023-07-31T09:36:53;22.90;99.90
14099;DHT22;7126;48.458;7.930;2023-07-31T09:39:19;22.80;99.90
14099;DHT22;7126;48.458;7.930;2023-07-31T09:41:54;22.60;99.90
14099;DHT22;7126;48.458;7.930;2023-07-31T09:44:20;22.40;99.90
14099;DHT22;7126;48.458;7.930;2023-07-31T09:46:46;22.20;99.90
14099;DHT22;7126;48.458;7.930;2023-07-31T09:49:13;22.10;99.90
14099;DHT22;7126;48.458;7.930;2023-07-31T09:51:42;22.10;99.90
14099;DHT22;7126;48.458;7.930;2023-07-31T09:54:17;22.20;99.90
14099;DHT22;7126;48.458;7.930;2023-07-31T09:56:45;22.20;99.90
14099;DHT22;7126;48.458;7.930;2023-07-31T09:59:13;22.20;99.90
14099;DHT22;7126;48.458;7.930;2023-07-31T10:01:40;22.30;99.90
14099;DHT22;7126;48.458;7.930;2023-07-31T10:04:09;22.50;99.90
14099;DHT22;7126;48.458;7.930;2023-07-31T10:06:36;22.70;99.90
14099;DHT22;7126;48.458;7.930;2023-07-31T10:09:07;22.80;99.90
14099;DHT22;7126;48.458;7.930;2023-07-31T10:11:43;22.90;99.90
14099;DHT22;7126;48.458;7.930;2023-07-31T10:14:09;23.00;99.90
14099;DHT22;7126;48.458;7.930;2023-07-31T10:16:38;22.90;99.90
14099;DHT22;7126;48.458;7.930;2023-07-31T10:19:05;22.90;99.90
14099;DHT22;7126;48.458;7.930;2023-07-31T10:21:31;22.80;99.90
14099;DHT22;7126;48.458;7.930;2023-07-31T10:24:02;22.80;99.90
14099;DHT22;7126;48.458;7.930;2023-07-31T10:26:29;22.70;99.90
14099;DHT22;7126;48.458;7.930;2023-07-31T10:28:56;22.70;99.90
14099;DHT22;7126;48.458;7.930;2023-07-31T10:31:23;22.60;99.90
14099;DHT22;7126;48.458;7.930;2023-07-31T10:33:50;22.50;99.90
14099;DHT22;7126;48.458;7.930;2023-07-31T10:36:20;22.40;99.90
14099;DHT22;7126;48.458;7.930;2023-07-31T10:38:49;22.40;99.90
14099;DHT22;7126;48.458;7.930;2023-07-31T10:41:14;22.50;99.90
14099;DHT22;7126;48.458;7.930;2023-07-31T10:43:40;22.50;99.90
14099;DHT22;7126;48.458;7.930;2023-07-31T10:46:11;22.40;99.90
14099;DHT22;7126;48.458;7.930;2023-07-31T10:48:39;22.40;99.90
14099;DHT22;7126;48.458;7.930;2023-07-31T10:51:08;22.40;99.90
14099;DHT22;7126;48.458;7.930;2023-07-31T10:53:34;22.40;99.90
14099;DHT22;7126;48.458;7.930;2023-07-31T10:56:08;22.40;99.90
14099;DHT22;7126;48.458;7.930;2023-07-31T10:58:34;22.50;99.90
14099;DHT22;7126;48.458;7.930;2023-07-31T11:01:02;22.50;99.90
14099;DHT22;7126;48.458;7.930;2023-07-31T11:03:48;22.50;99.90
14099;DHT22;7126;48.458;7.930;2023-07-31T11:06:15;22.40;99.90
14099;DHT22;7126;48.458;7.930;2023-07-31T11:08:46;22.40;99.90
14099;DHT22;7126;48.458;7.930;2023-07-31T11:11:14;22.30;99.90
14099;DHT22;7126;48.458;7.930;2023-07-31T11:13:50;22.20;99.90
14099;DHT22;7126;48.458;7.930;2023-07-31T11:16:23;22.20;99.90
14099;DHT22;7126;48.458;7.930;2023-07-31T11:18:50;22.30;99.90
14099;DHT22;7126;48.458;7.930;2023-07-31T11:21:22;22.40;99.90
14099;DHT22;7126;48.458;7.930;2023-07-31T11:23:50;22.60;99.90
14099;DHT22;7126;48.458;7.930;2023-07-31T11:26:17;23.00;99.90
14099;DHT22;7126;48.458;7.930;2023-07-31T11:28:43;23.10;99.90
14099;DHT22;7126;48.458;7.930;2023-07-31T11:31:09;23.20;99.90
14099;DHT22;7126;48.458;7.930;2023-07-31T11:33:35;23.20;99.90
14099;DHT22;7126;48.458;7.930;2023-07-31T11:36:01;23.30;99.90
14099;DHT22;7126;48.458;7.930;2023-07-31T11:38:28;23.30;99.90
14099;DHT22;7126;48.458;7.930;2023-07-31T11:40:56;23.30;99.90
14099;DHT22;7126;48.458;7.930;2023-07-31T11:43:23;23.20;99.90
14099;DHT22;7126;48.458;7.930;2023-07-31T11:45:53;23.10;99.90
14099;DHT22;7126;48.458;7.930;2023-07-31T11:48:24;23.50;99.90
14099;DHT22;7126;48.458;7.930;2023-07-31T11:50:53;24.00;99.90
14099;DHT22;7126;48.458;7.930;2023-07-31T11:53:26;24.50;99.90
14099;DHT22;7126;48.458;7.930;2023-07-31T11:55:52;24.90;99.90
14099;DHT22;7126;48.458;7.930;2023-07-31T11:58:18;24.90;99.90
14099;DHT22;7126;48.458;7.930;2023-07-31T12:00:45;24.70;99.90
14099;DHT22;7126;48.458;7.930;2023-07-31T12:03:11;24.70;99.90
14099;DHT22;7126;48.458;7.930;2023-07-31T12:05:37;24.70;99.90
14099;DHT22;7126;48.458;7.930;2023-07-31T12:08:09;24.70;99.90
14099;DHT22;7126;48.458;7.930;2023-07-31T12:10:34;24.80;99.90
14099;DHT22;7126;48.458;7.930;2023-07-31T12:13:09;24.80;99.90
14099;DHT22;7126;48.458;7.930;2023-07-31T12:15:43;24.80;99.90
14099;DHT22;7126;48.458;7.930;2023-07-31T12:18:13;24.90;99.90
14099;DHT22;7126;48.458;7.930;2023-07-31T12:20:47;25.00;99.90
14099;DHT22;7126;48.458;7.930;2023-07-31T12:26:08;25.30;99.90
14099;DHT22;7126;48.458;7.930;2023-07-31T12:28:39;25.40;99.90
14099;DHT22;7126;48.458;7.930;2023-07-31T12:31:09;25.20;99.90
14099;DHT22;7126;48.458;7.930;2023-07-31T12:33:37;25.10;99.90
14099;DHT22;7126;48.458;7.930;2023-07-31T12:36:06;25.10;99.90
14099;DHT22;7126;48.458;7.930;2023-07-31T12:38:33;25.20;99.90
14099;DHT22;7126;48.458;7.930;2023-07-31T12:40:58;25.20;99.90
14099;DHT22;7126;48.458;7.930;2023-07-31T12:43:24;25.20;99.90
14099;DHT22;7126;48.458;7.930;2023-07-31T12:45:50;25.30;99.90
14099;DHT22;7126;48.458;7.930;2023-07-31T12:48:15;25.40;99.90
14099;DHT22;7126;48.458;7.930;2023-07-31T12:50:41;25.50;99.90
14099;DHT22;7126;48.458;7.930;2023-07-31T12:53:07;25.70;99.90
14099;DHT22;7126;48.458;7.930;2023-07-31T12:55:33;25.70;99.90
14099;DHT22;7126;48.458;7.930;2023-07-31T12:58:00;25.70;99.90
14099;DHT22;7126;48.458;7.930;2023-07-31T13:00:26;25.70;99.90
14099;DHT22;7126;48.458;7.930;2023-07-31T13:02:52;25.70;99.90
14099;DHT22;7126;48.458;7.930;2023-07-31T13:05:18;25.50;99.90
14099;DHT22;7126;48.458;7.930;2023-07-31T13:07:45;25.50;99.90
14099;DHT22;7126;48.458;7.930;2023-07-31T13:10:10;25.60;99.90
14099;DHT22;7126;48.458;7.930;2023-07-31T13:12:36;25.90;99.90
14099;DHT22;7126;48.458;7.930;2023-07-31T13:15:03;26.10;99.90
14099;DHT22;7126;48.458;7.930;2023-07-31T13:17:28;26.40;99.90
14099;DHT22;7126;48.458;7.930;2023-07-31T13:19:54;26.60;99.90
14099;DHT22;7126;48.458;7.930;2023-07-31T13:22:19;26.60;99.90
14099;DHT22;7126;48.458;7.930;2023-07-31T13:24:45;26.50;99.90
14099;DHT22;7126;48.458;7.930;2023-07-31T13:27:10;26.10;99.90
14099;DHT22;7126;48.458;7.930;2023-07-31T13:29:36;25.90;99.90
14099;DHT22;7126;48.458;7.930;2023-07-31T13:32:02;25.70;99.90
14099;DHT22;7126;48.458;7.930;2023-07-31T13:34:27;25.40;99.90
14099;DHT22;7126;48.458;7.930;2023-07-31T13:36:54;25.20;99.90
14099;DHT22;7126;48.458;7.930;2023-07-31T13:39:20;25.10;99.90
14099;DHT22;7126;48.458;7.930;2023-07-31T13:41:46;25.10;99.90
14099;DHT22;7126;48.458;7.930;2023-07-31T13:44:11;25.10;99.90
14099;DHT22;7126;48.458;7.930;2023-07-31T13:46:37;25.10;99.90
14099;DHT22;7126;48.458;7.930;2023-07-31T13:49:02;25.10;99.90
14099;DHT22;7126;48.458;7.930;2023-07-31T13:51:28;25.10;99.90
14099;DHT22;7126;48.458;7.930;2023-07-31T13:53:54;25.10;99.90
14099;DHT22;7126;48.458;7.930;2023-07-31T13:56:19;25.20;99.90
14099;DHT22;7126;48.458;7.930;2023-07-31T13:58:45;25.10;99.90
14099;DHT22;7126;48.458;7.930;2023-07-31T14:01:10;25.00;99.90
14099;DHT22;7126;48.458;7.930;2023-07-31T14:03:36;25.00;99.90
14099;DHT22;7126;48.458;7.930;2023-07-31T14:06:01;25.00;99.90
14099;DHT22;7126;48.458;7.930;2023-07-31T14:08:27;24.80;99.90
14099;DHT22;7126;48.458;7.930;2023-07-31T14:10:53;24.80;99.90
14099;DHT22;7126;48.458;7.930;2023-07-31T14:13:18;24.80;99.90
14099;DHT22;7126;48.458;7.930;2023-07-31T14:15:44;24.80;99.90
14099;DHT22;7126;48.458;7.930;2023-07-31T14:18:09;24.70;99.90
14099;DHT22;7126;48.458;7.930;2023-07-31T14:20:35;24.60;99.90
14099;DHT22;7126;48.458;7.930;2023-07-31T14:23:02;24.60;99.90
14099;DHT22;7126;48.458;7.930;2023-07-31T14:25:28;24.60;99.90
14099;DHT22;7126;48.458;7.930;2023-07-31T14:27:53;24.60;99.90
14099;DHT22;7126;48.458;7.930;2023-07-31T14:30:19;24.50;99.90
14099;DHT22;7126;48.458;7.930;2023-07-31T14:32:45;24.50;99.90
14099;DHT22;7126;48.458;7.930;2023-07-31T14:35:11;24.50;99.90
14099;DHT22;7126;48.458;7.930;2023-07-31T14:37:41;24.40;99.90
14099;DHT22;7126;48.458;7.930;2023-07-31T14:40:08;24.40;99.90
14099;DHT22;7126;48.458;7.930;2023-07-31T14:42:35;24.40;99.90
14099;DHT22;7126;48.458;7.930;2023-07-31T14:45:01;24.40;99.90
14099;DHT22;7126;48.458;7.930;2023-07-31T14:47:27;24.40;99.90
14099;DHT22;7126;48.458;7.930;2023-07-31T14:49:52;24.40;99.90
14099;DHT22;7126;48.458;7.930;2023-07-31T14:52:18;24.40;99.90
14099;DHT22;7126;48.458;7.930;2023-07-31T14:54:44;24.50;99.90
14099;DHT22;7126;48.458;7.930;2023-07-31T14:57:10;24.40;99.90
14099;DHT22;7126;48.458;7.930;2023-07-31T14:59:35;24.50;99.90
14099;DHT22;7126;48.458;7.930;2023-07-31T15:02:01;24.60;99.90
14099;DHT22;7126;48.458;7.930;2023-07-31T15:04:27;24.70;99.90
14099;DHT22;7126;48.458;7.930;2023-07-31T15:06:53;24.70;99.90
14099;DHT22;7126;48.458;7.930;2023-07-31T15:09:19;24.70;99.90
14099;DHT22;7126;48.458;7.930;2023-07-31T15:11:44;24.80;99.90
14099;DHT22;7126;48.458;7.930;2023-07-31T15:14:10;24.90;99.90
14099;DHT22;7126;48.458;7.930;2023-07-31T15:16:35;25.10;99.90
14099;DHT22;7126;48.458;7.930;2023-07-31T15:19:01;25.30;99.90
14099;DHT22;7126;48.458;7.930;2023-07-31T15:21:26;25.40;99.90
14099;DHT22;7126;48.458;7.930;2023-07-31T15:23:52;25.60;99.90
14099;DHT22;7126;48.458;7.930;2023-07-31T15:26:18;25.80;99.90
14099;DHT22;7126;48.458;7.930;2023-07-31T15:28:50;25.90;99.90
14099;DHT22;7126;48.458;7.930;2023-07-31T15:31:20;25.90;99.90
14099;DHT22;7126;48.458;7.930;2023-07-31T15:33:47;25.90;99.90
14099;DHT22;7126;48.458;7.930;2023-07-31T15:36:13;25.90;99.90
14099;DHT22;7126;48.458;7.930;2023-07-31T15:38:39;25.70;99.90
14099;DHT22;7126;48.458;7.930;2023-07-31T15:41:05;25.60;99.90
14099;DHT22;7126;48.458;7.930;2023-07-31T15:43:30;25.50;99.90
14099;DHT22;7126;48.458;7.930;2023-07-31T15:45:56;25.30;99.90
14099;DHT22;7126;48.458;7.930;2023-07-31T15:48:21;25.30;99.90
14099;DHT22;7126;48.458;7.930;2023-07-31T15:50:47;25.20;99.90